createdAt,value
2018-02-15T00:00:10.464Z,-1.90
2018-02-15T00:02:37.970Z,-1.90
2018-02-15T00:05:05.815Z,-1.90
2018-02-15T00:07:33.329Z,-1.90
2018-02-15T00:10:00.838Z,-1.90
2018-02-15T00:12:29.110Z,-1.80
2018-02-15T00:14:57.506Z,-1.80
2018-02-15T00:17:26.714Z,-1.70
2018-02-15T00:19:55.092Z,-1.70
2018-02-15T00:22:24.088Z,-1.70
2018-02-15T00:24:51.637Z,-1.70
2018-02-15T00:27:19.170Z,-1.60
2018-02-15T00:29:47.555Z,-1.60
2018-02-15T00:32:15.853Z,-1.60
2018-02-15T00:34:44.103Z,-1.60
2018-02-15T00:37:11.593Z,-1.60
2018-02-15T00:39:39.101Z,-1.60
2018-02-15T00:42:06.931Z,-1.50
2018-02-15T00:44:34.529Z,-1.50
2018-02-15T00:47:02.783Z,-1.50
2018-02-15T00:49:30.383Z,-1.50
2018-02-15T00:51:58.799Z,-1.60
2018-02-15T00:54:26.494Z,-1.60
2018-02-15T00:56:53.991Z,-1.70
2018-02-15T00:59:21.622Z,-1.60
2018-02-15T01:01:49.218Z,-1.70
2018-02-15T01:04:16.788Z,-1.70
2018-02-15T01:06:44.354Z,-1.70
2018-02-15T01:09:11.842Z,-1.70
2018-02-15T01:11:39.441Z,-1.70
2018-02-15T01:14:07.837Z,-1.70
2018-02-15T01:16:35.341Z,-1.80
2018-02-15T01:19:02.828Z,-1.80
2018-02-15T01:21:30.412Z,-1.80
2018-02-15T01:23:57.913Z,-1.80
2018-02-15T01:26:25.762Z,-1.80
2018-02-15T01:28:53.649Z,-1.80
2018-02-15T01:31:21.151Z,-1.80
2018-02-15T01:33:49.405Z,-1.70
2018-02-15T01:36:16.956Z,-1.70
2018-02-15T01:38:44.468Z,-1.60
2018-02-15T01:41:12.231Z,-1.50
2018-02-15T01:43:39.779Z,-1.40
2018-02-15T01:46:07.289Z,-1.30
2018-02-15T01:48:34.785Z,-1.20
2018-02-15T01:51:03.031Z,-1.00
2018-02-15T01:53:30.661Z,-1.00
2018-02-15T01:55:58.482Z,-0.90
2018-02-15T01:58:25.978Z,-0.90
2018-02-15T02:00:53.505Z,-0.80
2018-02-15T02:03:20.988Z,-0.70
2018-02-15T02:05:48.478Z,-0.60
2018-02-15T02:08:16.256Z,-0.60
2018-02-15T02:10:45.236Z,-0.60
2018-02-15T02:13:12.726Z,-0.50
2018-02-15T02:15:40.289Z,-0.50
2018-02-15T02:18:07.886Z,-0.50
2018-02-15T02:20:59.846Z,-0.50
2018-02-15T02:23:28.105Z,-0.40
2018-02-15T02:25:55.661Z,-0.50
2018-02-15T02:28:24.141Z,-0.50
2018-02-15T02:30:52.455Z,-0.40
2018-02-15T02:33:19.967Z,-0.40
2018-02-15T02:35:47.449Z,-0.40
2018-02-15T02:38:14.945Z,-0.40
2018-02-15T02:40:43.000Z,-0.40
2018-02-15T02:43:10.535Z,-0.40
2018-02-15T02:45:38.026Z,-0.40
2018-02-15T02:48:06.329Z,-0.40
2018-02-15T02:50:34.069Z,-0.40
2018-02-15T02:53:01.557Z,-0.30
2018-02-15T02:55:29.817Z,-0.30
2018-02-15T02:57:57.314Z,-0.30
2018-02-15T03:00:25.566Z,-0.20
2018-02-15T03:02:53.301Z,-0.30
2018-02-15T03:05:20.797Z,-0.20
2018-02-15T03:07:48.294Z,-0.20
2018-02-15T03:10:15.782Z,-0.20
2018-02-15T03:12:43.320Z,-0.10
2018-02-15T03:15:10.806Z,-0.20
2018-02-15T03:17:38.313Z,-0.10
2018-02-15T03:20:06.577Z,-0.10
2018-02-15T03:22:34.102Z,-0.10
2018-02-15T03:25:01.597Z,-0.10
2018-02-15T03:27:29.231Z,-0.10
2018-02-15T03:29:56.756Z,-0.10
2018-02-15T03:32:24.264Z,-0.10
2018-02-15T03:34:51.773Z,-0.10
2018-02-15T03:37:19.281Z,-0.10
2018-02-15T03:39:47.626Z,-0.10
2018-02-15T03:42:15.131Z,-0.10
2018-02-15T03:44:42.631Z,-0.10
2018-02-15T03:47:10.881Z,-0.10
2018-02-15T03:49:38.373Z,-0.10
2018-02-15T03:52:06.621Z,-0.10
2018-02-15T03:54:34.114Z,-0.10
2018-02-15T03:57:01.608Z,-0.10
2018-02-15T03:59:29.869Z,-0.10
2018-02-15T04:01:57.449Z,-0.10
2018-02-15T04:04:24.972Z,-0.10
2018-02-15T04:06:52.466Z,0.00
2018-02-15T04:09:19.952Z,0.00
2018-02-15T04:11:47.461Z,0.00
2018-02-15T04:14:15.713Z,0.00
2018-02-15T04:16:43.205Z,0.00
2018-02-15T04:19:11.490Z,0.00
2018-02-15T04:21:39.754Z,0.00
2018-02-15T04:24:08.258Z,0.00
2018-02-15T04:26:35.780Z,0.00
2018-02-15T04:29:03.270Z,0.00
2018-02-15T04:31:30.880Z,0.00
2018-02-15T04:33:58.464Z,0.00
2018-02-15T04:36:26.721Z,0.00
2018-02-15T04:38:54.206Z,0.10
2018-02-15T04:41:21.731Z,0.00
2018-02-15T04:43:49.213Z,0.10
2018-02-15T04:46:16.705Z,0.10
2018-02-15T04:48:44.192Z,0.10
2018-02-15T04:51:11.710Z,0.10
2018-02-15T04:53:39.278Z,0.10
2018-02-15T04:56:06.756Z,0.20
2018-02-15T04:58:34.246Z,0.20
2018-02-15T05:01:01.747Z,0.20
2018-02-15T05:03:29.228Z,0.20
2018-02-15T05:05:57.491Z,0.20
2018-02-15T05:08:25.066Z,0.20
2018-02-15T05:10:52.582Z,0.20
2018-02-15T05:13:20.153Z,0.30
2018-02-15T05:15:47.639Z,0.30
2018-02-15T05:18:15.167Z,0.30
2018-02-15T05:20:43.454Z,0.30
2018-02-15T05:23:11.706Z,0.30
2018-02-15T05:25:40.045Z,0.40
2018-02-15T05:28:08.490Z,0.40
2018-02-15T05:30:35.977Z,0.40
2018-02-15T05:33:03.567Z,0.50
2018-02-15T05:35:32.203Z,0.50
2018-02-15T05:38:00.426Z,0.50
2018-02-15T05:40:27.928Z,0.50
2018-02-15T05:42:56.313Z,0.50
2018-02-15T05:45:24.586Z,0.50
2018-02-15T05:47:52.118Z,0.50
2018-02-15T05:50:19.703Z,0.50
2018-02-15T05:52:47.194Z,0.50
2018-02-15T05:55:14.679Z,0.50
2018-02-15T05:57:42.212Z,0.50
2018-02-15T06:00:09.677Z,0.60
2018-02-15T06:02:37.400Z,0.60
2018-02-15T06:05:05.648Z,0.60
2018-02-15T06:07:33.177Z,0.60
2018-02-15T06:10:01.081Z,0.60
2018-02-15T06:12:28.605Z,0.60
2018-02-15T06:14:56.127Z,0.60
2018-02-15T06:17:23.669Z,0.60
2018-02-15T06:19:52.018Z,0.70
2018-02-15T06:22:19.550Z,0.60
2018-02-15T06:24:47.062Z,0.60
2018-02-15T06:27:14.596Z,0.70
2018-02-15T06:29:42.227Z,0.70
2018-02-15T06:32:11.716Z,0.70
2018-02-15T06:34:39.251Z,0.70
2018-02-15T06:37:07.747Z,0.70
2018-02-15T06:39:35.410Z,0.80
2018-02-15T06:42:02.920Z,0.80
2018-02-15T06:44:30.605Z,0.80
2018-02-15T06:46:58.343Z,0.80
2018-02-15T06:49:25.892Z,0.80
2018-02-15T06:51:54.180Z,0.90
2018-02-15T06:54:22.512Z,0.90
2018-02-15T06:56:50.060Z,0.90
2018-02-15T06:59:17.582Z,1.00
2018-02-15T07:01:45.104Z,1.00
2018-02-15T07:04:12.679Z,1.10
2018-02-15T07:06:40.213Z,1.10
2018-02-15T07:09:07.751Z,1.10
2018-02-15T07:17:17.204Z,1.20
2018-02-15T07:19:44.742Z,1.30
2018-02-15T07:22:12.694Z,1.30
2018-02-15T07:24:40.254Z,1.40
2018-02-15T07:27:07.807Z,1.40
2018-02-15T07:29:36.131Z,1.50
2018-02-15T07:32:03.647Z,1.50
2018-02-15T07:34:31.155Z,1.50
2018-02-15T07:36:58.695Z,1.60
2018-02-15T07:39:26.618Z,1.70
2018-02-15T07:41:54.139Z,1.80
2018-02-15T07:44:21.671Z,1.80
2018-02-15T07:46:49.224Z,1.90
2018-02-15T07:49:16.753Z,1.80
2018-02-15T07:51:44.271Z,1.90
2018-02-15T07:54:11.837Z,2.00
2018-02-15T07:56:39.356Z,2.00
2018-02-15T07:59:07.046Z,2.10
2018-02-15T08:01:34.584Z,2.10
2018-02-15T08:04:02.655Z,2.20
2018-02-15T08:06:30.172Z,2.30
2018-02-15T08:08:57.690Z,2.30
2018-02-15T08:11:25.271Z,2.30
2018-02-15T08:13:53.083Z,2.40
2018-02-15T08:16:20.711Z,2.50
2018-02-15T08:18:48.270Z,2.50
2018-02-15T08:21:15.847Z,2.60
2018-02-15T08:23:44.344Z,2.70
2018-02-15T08:26:12.622Z,2.70
2018-02-15T08:28:40.971Z,2.70
2018-02-15T08:31:08.511Z,2.70
2018-02-15T08:33:36.824Z,2.80
2018-02-15T08:36:04.373Z,2.70
2018-02-15T08:38:31.899Z,2.80
2018-02-15T08:40:59.738Z,2.80
2018-02-15T08:43:27.427Z,2.80
2018-02-15T08:45:54.976Z,2.90
2018-02-15T08:48:22.499Z,3.00
2018-02-15T08:50:50.004Z,3.00
2018-02-15T08:53:17.564Z,3.00
2018-02-15T08:55:46.322Z,3.00
2018-02-15T08:58:15.098Z,3.00
2018-02-15T09:00:42.649Z,3.00
2018-02-15T09:03:10.964Z,2.90
2018-02-15T09:05:38.523Z,2.90
2018-02-15T09:08:06.209Z,2.90
2018-02-15T09:10:33.750Z,2.80
2018-02-15T09:13:02.163Z,3.00
2018-02-15T09:15:29.744Z,2.90
2018-02-15T09:17:57.306Z,3.00
2018-02-15T09:20:24.879Z,3.10
2018-02-15T09:22:52.414Z,3.10
2018-02-15T09:25:20.030Z,3.10
2018-02-15T09:27:47.553Z,3.20
2018-02-15T09:30:15.147Z,3.20
2018-02-15T09:32:43.666Z,3.10
2018-02-15T09:35:11.207Z,3.10
2018-02-15T09:37:39.717Z,3.30
2018-02-15T09:40:08.095Z,3.40
2018-02-15T09:42:36.401Z,3.60
2018-02-15T09:45:04.682Z,3.80
2018-02-15T09:47:32.977Z,4.10
2018-02-15T09:50:01.259Z,4.20
2018-02-15T09:52:29.559Z,4.30
2018-02-15T09:54:57.083Z,4.20
2018-02-15T09:57:24.598Z,4.20
2018-02-15T09:59:52.893Z,4.10
2018-02-15T10:02:20.449Z,4.10
2018-02-15T10:04:48.849Z,4.50
2018-02-15T10:07:17.137Z,4.60
2018-02-15T10:09:46.062Z,4.60
2018-02-15T10:12:13.585Z,4.60
2018-02-15T10:14:41.665Z,4.60
2018-02-15T10:17:09.198Z,4.50
2018-02-15T10:19:36.716Z,4.50
2018-02-15T10:22:04.336Z,4.50
2018-02-15T10:24:31.862Z,4.50
2018-02-15T10:26:59.386Z,4.50
2018-02-15T10:29:27.293Z,4.50
2018-02-15T10:31:54.812Z,4.40
2018-02-15T10:34:22.462Z,4.40
2018-02-15T10:36:50.065Z,4.50
2018-02-15T10:39:17.627Z,4.60
2018-02-15T10:41:45.929Z,4.90
2018-02-15T10:44:13.453Z,4.80
2018-02-15T10:46:41.250Z,5.00
2018-02-15T10:49:09.706Z,5.40
2018-02-15T10:51:37.301Z,5.40
2018-02-15T10:54:05.026Z,5.50
2018-02-15T10:56:32.582Z,5.60
2018-02-15T10:59:01.188Z,5.60
2018-02-15T11:01:34.490Z,5.60
2018-02-15T11:04:03.846Z,5.70
2018-02-15T11:06:31.353Z,5.70
2018-02-15T11:08:59.652Z,5.90
2018-02-15T11:11:29.149Z,5.90
2018-02-15T11:13:56.687Z,5.90
2018-02-15T11:16:24.214Z,6.00
2018-02-15T11:18:52.719Z,5.70
2018-02-15T11:21:20.381Z,5.70
2018-02-15T11:23:48.404Z,5.70
2018-02-15T11:26:16.418Z,5.80
2018-02-15T11:28:45.257Z,5.70
2018-02-15T11:31:13.220Z,5.70
2018-02-15T11:33:41.501Z,5.70
2018-02-15T11:36:09.613Z,5.70
2018-02-15T11:38:38.177Z,5.70
2018-02-15T11:41:07.745Z,5.70
2018-02-15T11:43:35.965Z,5.60
2018-02-15T11:46:04.042Z,5.50
2018-02-15T11:48:32.126Z,5.60
2018-02-15T11:51:01.852Z,5.60
2018-02-15T11:53:30.232Z,5.40
2018-02-15T11:55:57.893Z,5.30
2018-02-15T11:58:41.310Z,5.40
2018-02-15T12:01:09.484Z,5.40
2018-02-15T12:03:38.511Z,5.30
2018-02-15T12:06:06.257Z,5.20
2018-02-15T12:08:33.889Z,5.10
2018-02-15T12:11:03.489Z,5.10
2018-02-15T12:13:31.982Z,5.10
2018-02-15T12:16:02.032Z,5.20
2018-02-15T12:18:29.874Z,5.20
2018-02-15T12:20:58.206Z,5.30
2018-02-15T12:23:25.732Z,5.30
2018-02-15T12:25:54.090Z,5.40
2018-02-15T12:28:21.621Z,5.40
2018-02-15T12:30:49.139Z,5.40
2018-02-15T12:33:16.767Z,5.40
2018-02-15T12:35:44.481Z,5.40
2018-02-15T12:38:12.838Z,5.40
2018-02-15T12:40:41.030Z,5.50
2018-02-15T12:43:11.303Z,5.60
2018-02-15T12:45:40.030Z,5.60
2018-02-15T12:48:08.262Z,5.60
2018-02-15T12:50:36.598Z,5.70
2018-02-15T12:53:05.281Z,5.70
2018-02-15T12:55:38.158Z,5.70
2018-02-15T12:58:06.582Z,5.80
2018-02-15T13:00:34.323Z,5.90
2018-02-15T13:03:02.012Z,5.90
2018-02-15T13:05:29.523Z,6.00
2018-02-15T13:07:57.922Z,6.20
2018-02-15T13:10:25.637Z,6.20
2018-02-15T13:13:05.222Z,6.20
2018-02-15T13:15:44.702Z,6.10
2018-02-15T13:18:13.017Z,5.90
2018-02-15T13:20:40.606Z,5.90
2018-02-15T13:23:08.137Z,5.80
2018-02-15T13:25:36.549Z,5.70
2018-02-15T13:28:15.871Z,5.70
2018-02-15T13:30:44.369Z,5.50
2018-02-15T13:33:12.770Z,5.40
2018-02-15T13:35:41.208Z,5.50
2018-02-15T13:38:08.754Z,5.50
2018-02-15T13:40:36.489Z,5.60
2018-02-15T13:43:04.082Z,5.70
2018-02-15T13:45:32.396Z,5.80
2018-02-15T13:47:59.941Z,5.80
2018-02-15T13:50:27.830Z,5.80
2018-02-15T13:52:55.498Z,5.80
2018-02-15T13:55:23.411Z,5.80
2018-02-15T13:57:50.976Z,5.70
2018-02-15T14:00:18.559Z,5.80
2018-02-15T14:02:46.153Z,5.80
2018-02-15T14:05:13.771Z,6.00
2018-02-15T14:07:41.355Z,6.00
2018-02-15T14:10:09.163Z,6.00
2018-02-15T14:12:36.775Z,5.80
2018-02-15T14:15:05.152Z,5.80
2018-02-15T14:17:33.589Z,5.80
2018-02-15T14:20:01.124Z,5.80
2018-02-15T14:22:28.903Z,5.70
2018-02-15T14:24:57.449Z,5.70
2018-02-15T14:27:25.101Z,5.70
2018-02-15T14:29:52.655Z,5.70
2018-02-15T14:32:20.966Z,5.70
2018-02-15T14:34:48.598Z,5.70
2018-02-15T14:37:17.677Z,5.60
2018-02-15T14:39:45.330Z,5.60
2018-02-15T14:42:12.905Z,5.70
2018-02-15T14:44:40.446Z,5.80
2018-02-15T14:47:08.939Z,5.90
2018-02-15T14:49:37.246Z,5.80
2018-02-15T14:52:04.943Z,5.80
2018-02-15T14:54:32.469Z,5.80
2018-02-15T14:57:00.882Z,5.70
2018-02-15T14:59:28.847Z,5.70
2018-02-15T15:01:57.246Z,5.70
2018-02-15T15:04:25.740Z,5.70
2018-02-15T15:06:53.525Z,5.70
2018-02-15T15:09:21.045Z,5.60
2018-02-15T15:11:48.641Z,5.60
2018-02-15T15:14:16.921Z,5.40
2018-02-15T15:16:44.478Z,5.40
2018-02-15T15:19:12.005Z,5.40
2018-02-15T15:21:39.541Z,5.40
2018-02-15T15:24:07.245Z,5.30
2018-02-15T15:26:34.789Z,5.30
2018-02-15T15:29:03.112Z,5.20
2018-02-15T15:31:30.788Z,5.20
2018-02-15T15:33:58.387Z,5.20
2018-02-15T15:36:25.942Z,5.20
2018-02-15T15:38:53.729Z,5.10
2018-02-15T15:41:21.337Z,5.20
2018-02-15T15:43:50.308Z,5.10
2018-02-15T15:46:17.897Z,5.10
2018-02-15T15:48:45.518Z,5.10
2018-02-15T15:51:13.061Z,5.10
2018-02-15T15:53:41.412Z,5.00
2018-02-15T15:56:09.463Z,5.00
2018-02-15T15:58:37.760Z,5.00
2018-02-15T16:01:05.442Z,5.00
2018-02-15T16:03:33.105Z,5.00
2018-02-15T16:06:01.230Z,4.90
2018-02-15T16:08:29.284Z,4.90
2018-02-15T16:10:57.019Z,4.90
2018-02-15T16:13:24.891Z,4.90
2018-02-15T16:15:52.446Z,4.90
2018-02-15T16:18:20.258Z,4.90
2018-02-15T16:20:50.135Z,5.00
2018-02-15T16:23:19.542Z,5.00
2018-02-15T16:25:47.086Z,5.00
2018-02-15T16:28:15.476Z,5.00
2018-02-15T16:30:43.841Z,5.00
2018-02-15T16:33:12.327Z,5.00
2018-02-15T16:35:42.924Z,5.00
2018-02-15T16:38:10.488Z,5.00
2018-02-15T16:40:40.786Z,5.10
2018-02-15T16:43:09.161Z,5.10
2018-02-15T16:45:36.752Z,5.00
2018-02-15T16:48:04.841Z,5.10
2018-02-15T16:50:33.646Z,5.10
2018-02-15T16:53:01.254Z,5.10
2018-02-15T16:55:30.046Z,5.10
2018-02-15T16:57:57.820Z,5.00
2018-02-15T17:00:26.154Z,5.00
2018-02-15T17:02:54.096Z,5.00
2018-02-15T17:05:22.597Z,5.00
2018-02-15T17:07:50.324Z,5.00
2018-02-15T17:12:54.496Z,5.00
2018-02-15T17:15:22.824Z,5.10
2018-02-15T17:17:52.959Z,5.10
2018-02-15T17:20:20.866Z,5.00
2018-02-15T17:22:48.392Z,5.00
2018-02-15T17:25:16.447Z,5.10
2018-02-15T17:27:43.966Z,5.10
2018-02-15T17:30:11.514Z,5.10
2018-02-15T17:32:39.105Z,5.00
2018-02-15T17:35:07.422Z,5.10
2018-02-15T17:37:35.721Z,5.10
2018-02-15T17:40:04.718Z,5.10
2018-02-15T17:42:32.969Z,5.10
2018-02-15T17:45:00.865Z,5.10
2018-02-15T17:47:28.508Z,5.10
2018-02-15T17:49:58.646Z,5.10
2018-02-15T17:52:26.477Z,5.10
2018-02-15T17:54:55.067Z,5.10
2018-02-15T17:57:22.607Z,5.10
2018-02-15T17:59:50.247Z,5.10
2018-02-15T18:02:17.769Z,5.10
2018-02-15T18:04:45.355Z,5.10
2018-02-15T18:07:13.185Z,5.10
2018-02-15T18:09:40.713Z,5.10
2018-02-15T18:12:08.247Z,5.10
2018-02-15T18:14:35.799Z,5.10
2018-02-15T18:17:03.317Z,5.10
2018-02-15T18:19:30.943Z,5.10
2018-02-15T18:21:58.492Z,5.10
2018-02-15T18:24:26.871Z,5.20
2018-02-15T18:26:54.617Z,5.10
2018-02-15T18:29:22.170Z,5.20
2018-02-15T18:31:50.012Z,5.20
2018-02-15T18:34:23.216Z,5.30
2018-02-15T18:36:53.856Z,5.30
2018-02-15T18:39:22.664Z,5.30
2018-02-15T18:41:51.452Z,5.30
2018-02-15T18:44:19.002Z,5.30
2018-02-15T18:46:46.522Z,5.30
2018-02-15T18:49:14.972Z,5.30
2018-02-15T18:51:42.501Z,5.20
2018-02-15T18:54:11.514Z,5.30
2018-02-15T18:59:52.806Z,5.30
2018-02-15T19:02:20.321Z,5.30
2018-02-15T19:04:48.727Z,5.30
2018-02-15T19:07:16.262Z,5.30
2018-02-15T19:09:43.869Z,5.30
2018-02-15T19:12:12.266Z,5.30
2018-02-15T19:14:40.566Z,5.30
2018-02-15T19:17:08.096Z,5.30
2018-02-15T19:19:35.640Z,5.30
2018-02-15T19:28:15.079Z,5.40
2018-02-15T19:30:49.503Z,5.40
2018-02-15T19:36:12.902Z,5.40
2018-02-15T19:38:42.232Z,5.50
2018-02-15T19:41:10.005Z,5.50
2018-02-15T19:43:37.703Z,5.50
2018-02-15T19:46:08.288Z,5.50
2018-02-15T19:48:38.083Z,5.50
2018-02-15T19:54:16.398Z,5.50
2018-02-15T19:56:43.956Z,5.50
2018-02-15T19:59:13.321Z,5.50
2018-02-15T20:01:40.956Z,5.50
2018-02-15T20:04:13.787Z,5.50
2018-02-15T20:06:41.583Z,5.60
2018-02-15T20:09:09.298Z,5.60
2018-02-15T20:11:37.182Z,5.60
2018-02-15T20:14:05.527Z,5.60
2018-02-15T20:16:33.059Z,5.50
2018-02-15T20:19:00.589Z,5.60
2018-02-15T20:21:29.135Z,5.60
2018-02-15T20:23:56.664Z,5.50
2018-02-15T20:32:23.614Z,5.60
2018-02-15T20:34:51.200Z,5.60
2018-02-15T20:37:18.746Z,5.60
2018-02-15T20:42:50.458Z,5.50
2018-02-15T20:45:18.233Z,5.50
2018-02-15T20:47:45.754Z,5.50
2018-02-15T20:50:19.020Z,5.50
2018-02-15T20:52:52.257Z,5.40
2018-02-15T20:55:25.655Z,5.40
2018-02-15T20:57:55.879Z,5.50
2018-02-15T21:00:23.427Z,5.40
2018-02-15T21:02:50.971Z,5.50
2018-02-15T21:05:19.305Z,5.50
2018-02-15T21:07:46.831Z,5.50
2018-02-15T21:10:15.270Z,5.50
2018-02-15T21:12:42.889Z,5.50
2018-02-15T21:15:11.216Z,5.60
2018-02-15T21:17:39.110Z,5.60
2018-02-15T21:20:07.679Z,5.50
2018-02-15T21:22:35.224Z,5.60
2018-02-15T21:25:03.562Z,5.60
2018-02-15T21:27:31.727Z,5.50
2018-02-15T21:29:59.312Z,5.60
2018-02-15T21:32:26.833Z,5.60
2018-02-15T21:34:54.661Z,5.60
2018-02-15T21:37:22.468Z,5.60
2018-02-15T21:39:50.106Z,5.60
2018-02-15T21:42:17.669Z,5.60
2018-02-15T21:44:45.233Z,5.60
2018-02-15T21:47:12.754Z,5.60
2018-02-15T21:49:40.294Z,5.60
2018-02-15T21:52:07.844Z,5.70
2018-02-15T21:54:36.150Z,5.70
2018-02-15T21:57:03.724Z,5.70
2018-02-15T21:59:32.176Z,5.70
2018-02-15T22:01:59.740Z,5.70
2018-02-15T22:04:27.286Z,5.70
2018-02-15T22:06:54.813Z,5.70
2018-02-15T22:09:22.729Z,5.60
2018-02-15T22:11:50.375Z,5.60
2018-02-15T22:14:19.258Z,5.60
2018-02-15T22:16:47.667Z,5.50
2018-02-15T22:19:15.155Z,5.50
2018-02-15T22:21:43.128Z,5.50
2018-02-15T22:24:10.778Z,5.50
2018-02-15T22:26:39.049Z,5.40
2018-02-15T22:29:06.538Z,5.30
2018-02-15T22:31:38.022Z,5.30
2018-02-15T22:34:06.537Z,5.30
2018-02-15T22:36:34.113Z,5.30
2018-02-15T22:39:01.706Z,5.20
2018-02-15T22:41:34.389Z,5.20
2018-02-15T22:44:09.724Z,5.30
2018-02-15T22:46:51.273Z,5.30
2018-02-15T22:49:18.788Z,5.30
2018-02-15T22:51:47.750Z,5.30
2018-02-15T22:54:15.328Z,5.30
2018-02-15T22:56:43.655Z,5.40
2018-02-15T22:59:14.792Z,5.30
2018-02-15T23:01:42.321Z,5.40
2018-02-15T23:04:10.889Z,5.30
2018-02-15T23:06:38.376Z,5.20
2018-02-15T23:09:05.948Z,5.30
2018-02-15T23:11:38.076Z,5.20
2018-02-15T23:14:06.528Z,5.20
2018-02-15T23:16:34.125Z,5.20
2018-02-15T23:19:02.909Z,5.20
2018-02-15T23:21:30.518Z,5.20
2018-02-15T23:23:58.011Z,5.30
2018-02-15T23:26:25.502Z,5.30
2018-02-15T23:28:52.986Z,5.30
2018-02-15T23:31:20.533Z,5.30
2018-02-15T23:33:48.017Z,5.30
2018-02-15T23:36:15.580Z,5.30
2018-02-15T23:38:48.356Z,5.20
2018-02-15T23:41:15.848Z,5.10
2018-02-15T23:43:43.649Z,5.10
2018-02-15T23:46:11.129Z,5.10
2018-02-15T23:48:40.037Z,5.00
2018-02-15T23:51:08.889Z,5.00
2018-02-15T23:53:36.500Z,5.00
2018-02-15T23:56:03.998Z,5.00
2018-02-15T23:58:32.353Z,4.90
